Terminal Aerodrome Forecast
Issued by NWS

Home | Current Version | Previous Version | Text Only | Print | Product List | Glossary On
Versions: 1 2 3 4 5 6 7 8 9 10 11 12 13 14 15 16 17
000
FTUS46 KMFR 272345
TAFRBG
TAF
KRBG 272345Z 2800/2824 20004KT P6SM -SHRA SCT015 BKN040
     FM280300 24004KT P6SM -RA BKN015 OVC030
     FM280600 33003KT 5SM -SHRA BR BKN007 BKN015 OVC020
     FM281200 01003KT 3SM -SHRA BR SCT002 BKN004 OVC006
     FM281700 VRB02KT P6SM -SHRA SCT008 OVC020=

USA.gov is the U.S. government's official web portal to all federal, state and local government web resources and services.